createdAt,value
2018-08-17T00:00:29.777Z,1008.02
2018-08-17T00:01:30.986Z,1007.96
2018-08-17T00:02:30.361Z,1007.99
2018-08-17T00:03:29.300Z,1007.97
2018-08-17T00:04:29.418Z,1007.98
2018-08-17T00:05:29.370Z,1007.96
2018-08-17T00:07:29.863Z,1007.94
2018-08-17T00:08:28.974Z,1007.93
2018-08-17T00:09:29.340Z,1007.95
2018-08-17T00:10:29.347Z,1007.92
2018-08-17T00:11:29.312Z,1007.90
2018-08-17T00:12:29.890Z,1007.90
2018-08-17T00:13:28.950Z,1007.91
2018-08-17T00:14:29.419Z,1007.93
2018-08-17T00:15:29.373Z,1007.89
2018-08-17T00:16:29.361Z,1007.87
2018-08-17T00:17:29.381Z,1007.86
2018-08-17T00:18:29.344Z,1007.83
2018-08-17T00:19:29.412Z,1007.81
2018-08-17T00:20:29.975Z,1007.79
2018-08-17T00:21:28.993Z,1007.79
2018-08-17T00:22:29.349Z,1007.79
2018-08-17T00:23:31.845Z,1007.81
2018-08-17T00:24:29.048Z,1007.80
2018-08-17T00:25:29.805Z,1007.81
2018-08-17T00:26:29.039Z,1007.76
2018-08-17T00:27:49.449Z,1007.78
2018-08-17T00:28:29.005Z,1007.79
2018-08-17T00:29:29.331Z,1007.82
2018-08-17T00:30:29.305Z,1007.83
2018-08-17T00:31:28.987Z,1007.79
2018-08-17T00:32:29.312Z,1007.79
2018-08-17T00:33:29.370Z,1007.79
2018-08-17T00:34:28.914Z,1007.79
2018-08-17T00:35:29.443Z,1007.80
2018-08-17T00:36:29.318Z,1007.76
2018-08-17T00:37:29.099Z,1007.75
2018-08-17T00:38:29.887Z,1007.75
2018-08-17T00:39:29.401Z,1007.79
2018-08-17T00:40:28.956Z,1007.76
2018-08-17T00:41:29.418Z,1007.78
2018-08-17T00:42:29.411Z,1007.81
2018-08-17T00:43:28.942Z,1007.78
2018-08-17T00:44:29.446Z,1007.78
2018-08-17T00:45:31.158Z,1007.80
2018-08-17T00:46:28.949Z,1007.76
2018-08-17T00:47:29.392Z,1007.83
2018-08-17T00:49:29.115Z,1007.81
2018-08-17T00:50:29.419Z,1007.85
2018-08-17T00:51:29.434Z,1007.80
2018-08-17T00:52:28.942Z,1007.85
2018-08-17T00:53:29.282Z,1007.90
2018-08-17T00:54:29.308Z,1007.89
2018-08-17T00:55:29.045Z,1007.91
2018-08-17T00:56:31.323Z,1007.91
2018-08-17T00:57:29.362Z,1007.90
2018-08-17T00:58:28.987Z,1007.87
2018-08-17T00:59:29.895Z,1007.91
2018-08-17T01:00:29.644Z,1007.91
2018-08-17T01:01:29.551Z,1007.86
2018-08-17T01:02:29.035Z,1007.87
2018-08-17T01:03:29.993Z,1007.88
2018-08-17T01:04:28.934Z,1007.90
2018-08-17T01:05:29.916Z,1007.93
2018-08-17T01:06:28.989Z,1007.94
2018-08-17T01:07:29.496Z,1007.92
2018-08-17T01:08:28.954Z,1007.91
2018-08-17T01:09:29.439Z,1007.95
2018-08-17T01:10:28.913Z,1007.94
2018-08-17T01:11:29.436Z,1007.99
2018-08-17T01:12:29.440Z,1008.01
2018-08-17T01:13:29.264Z,1008.00
2018-08-17T01:14:29.012Z,1008.03
2018-08-17T01:15:30.425Z,1008.02
2018-08-17T01:16:29.012Z,1008.03
2018-08-17T01:17:29.395Z,1008.03
2018-08-17T01:18:29.456Z,1008.07
2018-08-17T01:19:29.685Z,1008.07
2018-08-17T01:20:29.500Z,1008.08
2018-08-17T01:21:29.018Z,1008.09
2018-08-17T01:22:29.046Z,1008.11
2018-08-17T01:23:29.484Z,1008.05
2018-08-17T01:24:29.914Z,1008.08
2018-08-17T01:25:29.014Z,1008.07
2018-08-17T01:26:29.531Z,1008.08
2018-08-17T01:27:29.501Z,1008.11
2018-08-17T01:28:29.069Z,1008.11
2018-08-17T01:29:30.005Z,1008.10
2018-08-17T01:30:30.954Z,1008.16
2018-08-17T01:31:30.787Z,1008.16
2018-08-17T01:32:28.917Z,1008.18
2018-08-17T01:33:31.607Z,1008.17
2018-08-17T01:34:29.022Z,1008.20
2018-08-17T01:35:30.329Z,1008.21
2018-08-17T01:36:31.354Z,1008.25
2018-08-17T01:37:29.031Z,1008.25
2018-08-17T01:38:29.399Z,1008.26
2018-08-17T01:39:29.423Z,1008.24
2018-08-17T01:40:29.049Z,1008.27
2018-08-17T01:41:29.345Z,1008.33
2018-08-17T01:42:29.411Z,1008.36
2018-08-17T01:43:29.039Z,1008.36
2018-08-17T01:44:29.435Z,1008.38
2018-08-17T01:45:29.417Z,1008.38
2018-08-17T01:46:29.112Z,1008.40
2018-08-17T01:47:29.497Z,1008.39
2018-08-17T01:48:31.342Z,1008.40
2018-08-17T01:49:29.046Z,1008.38
2018-08-17T01:50:29.383Z,1008.43
2018-08-17T01:51:29.436Z,1008.42
2018-08-17T01:52:29.032Z,1008.47
2018-08-17T01:53:29.423Z,1008.50
2018-08-17T01:54:29.485Z,1008.49
2018-08-17T01:55:31.006Z,1008.52
2018-08-17T01:56:29.398Z,1008.53
2018-08-17T01:57:29.434Z,1008.57
2018-08-17T01:58:28.997Z,1008.60
2018-08-17T01:59:29.385Z,1008.66
2018-08-17T02:00:35.334Z,1008.79
2018-08-17T02:01:29.005Z,1008.86
2018-08-17T02:02:29.443Z,1008.91
2018-08-17T02:03:29.380Z,1008.88
2018-08-17T02:04:28.941Z,1008.78
2018-08-17T02:05:29.403Z,1008.79
2018-08-17T02:06:29.430Z,1008.83
2018-08-17T02:07:30.943Z,1008.93
2018-08-17T02:08:29.343Z,1009.01
2018-08-17T02:09:29.460Z,1008.97
2018-08-17T02:10:30.958Z,1008.96
2018-08-17T02:11:29.412Z,1008.94
2018-08-17T02:12:29.466Z,1008.96
2018-08-17T02:13:29.078Z,1009.03
2018-08-17T02:14:29.497Z,1009.04
2018-08-17T02:15:29.426Z,1009.06
2018-08-17T02:16:29.047Z,1009.11
2018-08-17T02:17:29.448Z,1009.09
2018-08-17T02:18:29.427Z,1009.12
2018-08-17T02:19:29.122Z,1009.04
2018-08-17T02:20:29.494Z,1009.10
2018-08-17T02:21:29.445Z,1009.14
2018-08-17T02:22:29.124Z,1009.17
2018-08-17T02:23:29.457Z,1009.19
2018-08-17T02:24:29.582Z,1009.21
2018-08-17T02:25:29.123Z,1009.17
2018-08-17T02:26:29.449Z,1009.20
2018-08-17T02:27:29.400Z,1009.18
2018-08-17T02:28:28.952Z,1009.15
2018-08-17T02:29:29.048Z,1009.11
2018-08-17T02:30:31.347Z,1009.12
2018-08-17T02:31:28.984Z,1009.11
2018-08-17T02:32:29.455Z,1009.05
2018-08-17T02:33:29.347Z,1009.09
2018-08-17T02:34:30.039Z,1009.07
2018-08-17T02:35:29.463Z,1009.10
2018-08-17T02:36:29.443Z,1009.11
2018-08-17T02:37:28.994Z,1009.13
2018-08-17T02:38:29.447Z,1009.15
2018-08-17T02:39:29.443Z,1009.16
2018-08-17T02:40:29.395Z,1009.16
2018-08-17T02:41:29.575Z,1009.14
2018-08-17T02:42:29.015Z,1009.11
2018-08-17T02:43:29.585Z,1009.09
2018-08-17T02:44:29.625Z,1009.12
2018-08-17T02:45:29.445Z,1009.10
2018-08-17T02:46:28.981Z,1009.12
2018-08-17T02:47:29.425Z,1009.16
2018-08-17T02:48:29.936Z,1009.16
2018-08-17T02:49:29.096Z,1009.17
2018-08-17T02:50:29.431Z,1009.20
2018-08-17T02:51:29.431Z,1009.24
2018-08-17T02:52:31.008Z,1009.24
2018-08-17T02:53:29.368Z,1009.26
2018-08-17T02:54:31.414Z,1009.27
2018-08-17T02:55:29.021Z,1009.20
2018-08-17T02:56:29.351Z,1009.26
2018-08-17T02:57:29.345Z,1009.29
2018-08-17T02:58:28.993Z,1009.30
2018-08-17T02:59:29.605Z,1009.36
2018-08-17T03:00:45.390Z,1009.37
2018-08-17T03:01:28.972Z,1009.38
2018-08-17T03:02:29.434Z,1009.35
2018-08-17T03:03:29.406Z,1009.35
2018-08-17T03:04:29.973Z,1009.37
2018-08-17T03:05:29.431Z,1009.34
2018-08-17T03:06:29.424Z,1009.34
2018-08-17T03:07:30.940Z,1009.32
2018-08-17T03:08:29.353Z,1009.36
2018-08-17T03:09:29.437Z,1009.35
2018-08-17T03:10:28.971Z,1009.34
2018-08-17T03:11:29.439Z,1009.34
2018-08-17T03:12:29.472Z,1009.31
2018-08-17T03:13:29.095Z,1009.37
2018-08-17T03:14:29.436Z,1009.34
2018-08-17T03:15:29.424Z,1009.31
2018-08-17T03:16:29.051Z,1009.29
2018-08-17T03:17:29.384Z,1009.35
2018-08-17T03:18:29.457Z,1009.32
2018-08-17T03:19:29.039Z,1009.34
2018-08-17T03:20:29.434Z,1009.39
2018-08-17T03:21:33.404Z,1009.38
2018-08-17T03:22:31.391Z,1009.37
2018-08-17T03:23:29.468Z,1009.38
2018-08-17T03:24:31.420Z,1009.34
2018-08-17T03:25:29.467Z,1009.31
2018-08-17T03:26:29.349Z,1009.29
2018-08-17T03:27:29.416Z,1009.29
2018-08-17T03:28:29.412Z,1009.28
2018-08-17T03:29:29.352Z,1009.29
2018-08-17T03:30:29.416Z,1009.30
2018-08-17T03:31:29.404Z,1009.27
2018-08-17T03:32:31.682Z,1009.22
2018-08-17T03:33:29.422Z,1009.20
2018-08-17T03:34:29.422Z,1009.26
2018-08-17T03:35:29.463Z,1009.23
2018-08-17T03:36:30.161Z,1009.27
2018-08-17T03:37:30.987Z,1009.26
2018-08-17T03:38:29.436Z,1009.28
2018-08-17T03:39:29.657Z,1009.33
2018-08-17T03:40:29.417Z,1009.31
2018-08-17T03:41:29.200Z,1009.29
2018-08-17T03:42:29.455Z,1009.33
2018-08-17T03:43:28.932Z,1009.28
2018-08-17T03:44:29.423Z,1009.24
2018-08-17T03:45:29.428Z,1009.22
2018-08-17T03:46:29.541Z,1009.23
2018-08-17T03:47:29.428Z,1009.27
2018-08-17T03:48:29.442Z,1009.30
2018-08-17T03:49:29.365Z,1009.31
2018-08-17T03:50:29.391Z,1009.31
2018-08-17T03:51:29.474Z,1009.24
2018-08-17T03:52:29.441Z,1009.22
2018-08-17T03:53:29.459Z,1009.17
2018-08-17T03:54:29.461Z,1009.21
2018-08-17T03:55:29.403Z,1009.24
2018-08-17T03:56:29.422Z,1009.27
2018-08-17T03:57:29.353Z,1009.25
2018-08-17T03:58:29.346Z,1009.18
2018-08-17T03:59:29.369Z,1009.22
2018-08-17T04:00:29.351Z,1009.24
2018-08-17T04:01:29.442Z,1009.24
2018-08-17T04:02:31.401Z,1009.26
2018-08-17T04:03:29.428Z,1009.26
2018-08-17T04:04:29.407Z,1009.29
2018-08-17T04:05:29.367Z,1009.26
2018-08-17T04:06:29.433Z,1009.21
2018-08-17T04:07:29.416Z,1009.24
2018-08-17T04:08:29.478Z,1009.19
2018-08-17T04:09:29.441Z,1009.25
2018-08-17T04:10:30.472Z,1009.31
2018-08-17T04:11:29.420Z,1009.36
2018-08-17T04:12:29.477Z,1009.38
2018-08-17T04:13:29.492Z,1009.41
2018-08-17T04:14:29.437Z,1009.39
2018-08-17T04:15:30.566Z,1009.40
2018-08-17T04:16:29.482Z,1009.37
2018-08-17T04:17:29.063Z,1009.36
2018-08-17T04:18:29.384Z,1009.41
2018-08-17T04:19:29.436Z,1009.47
2018-08-17T04:20:32.059Z,1009.45
2018-08-17T04:21:29.456Z,1009.47
2018-08-17T04:22:29.598Z,1009.39
2018-08-17T04:23:29.621Z,1009.45
2018-08-17T04:24:29.721Z,1009.43
2018-08-17T04:25:31.624Z,1009.47
2018-08-17T04:26:29.554Z,1009.50
2018-08-17T04:27:29.635Z,1009.50
2018-08-17T04:28:29.542Z,1009.53
2018-08-17T04:29:29.453Z,1009.60
2018-08-17T04:30:29.479Z,1009.70
2018-08-17T04:31:29.592Z,1009.76
2018-08-17T04:32:29.940Z,1009.75
2018-08-17T04:33:29.432Z,1009.79
2018-08-17T04:34:29.224Z,1009.85
2018-08-17T04:35:30.102Z,1009.86
2018-08-17T04:36:29.469Z,1009.85
2018-08-17T04:37:29.505Z,1009.80
2018-08-17T04:38:29.481Z,1009.84
2018-08-17T04:39:29.679Z,1009.78
2018-08-17T04:40:28.977Z,1009.81
2018-08-17T04:41:30.724Z,1009.88
2018-08-17T04:42:29.674Z,1009.88
2018-08-17T04:44:29.396Z,1009.88
2018-08-17T04:45:29.410Z,1009.96
2018-08-17T04:46:29.407Z,1009.97
2018-08-17T04:47:29.399Z,1010.03
2018-08-17T04:48:29.392Z,1010.10
2018-08-17T04:49:29.427Z,1010.11
2018-08-17T04:50:29.638Z,1010.14
2018-08-17T04:51:29.493Z,1010.14
2018-08-17T04:52:29.984Z,1010.06
2018-08-17T04:53:31.487Z,1010.04
2018-08-17T04:54:27.859Z,1009.95
2018-08-17T04:55:27.828Z,1009.89
2018-08-17T04:56:29.011Z,1009.86
2018-08-17T04:57:28.893Z,1009.82
2018-08-17T04:58:27.868Z,1009.82
2018-08-17T04:59:27.862Z,1009.84
2018-08-17T05:00:27.862Z,1009.90
2018-08-17T05:01:29.350Z,1009.88
2018-08-17T05:02:27.830Z,1009.86
2018-08-17T05:03:29.091Z,1009.83
2018-08-17T05:04:27.838Z,1009.75
2018-08-17T05:05:27.842Z,1009.71
2018-08-17T05:06:28.469Z,1009.64
2018-08-17T05:07:29.205Z,1009.64
2018-08-17T05:08:30.660Z,1009.69
2018-08-17T05:09:27.864Z,1009.70
2018-08-17T05:10:28.879Z,1009.71
2018-08-17T05:11:28.921Z,1009.72
2018-08-17T05:12:28.573Z,1009.75
2018-08-17T05:13:28.621Z,1009.76
2018-08-17T05:14:28.131Z,1009.83
2018-08-17T05:15:28.977Z,1009.81
2018-08-17T05:16:29.157Z,1009.86
2018-08-17T05:17:28.980Z,1009.89
2018-08-17T05:18:30.388Z,1009.89
2018-08-17T05:19:28.876Z,1009.87
2018-08-17T05:20:29.262Z,1009.89
2018-08-17T05:21:29.145Z,1009.84
2018-08-17T05:22:29.148Z,1009.82
2018-08-17T05:23:28.562Z,1009.83
2018-08-17T05:24:28.575Z,1009.82
2018-08-17T05:25:28.934Z,1009.86
2018-08-17T05:26:28.905Z,1009.84
2018-08-17T05:27:28.722Z,1009.85
2018-08-17T05:28:28.919Z,1009.84
2018-08-17T05:29:31.967Z,1009.88
2018-08-17T05:30:29.003Z,1009.86
2018-08-17T05:31:29.176Z,1009.92
2018-08-17T05:32:28.908Z,1009.90
2018-08-17T05:33:28.569Z,1009.92
2018-08-17T05:34:28.595Z,1009.89
2018-08-17T05:35:30.474Z,1009.94
2018-08-17T05:36:28.578Z,1009.95
2018-08-17T05:37:28.511Z,1009.95
2018-08-17T05:38:27.809Z,1009.97
2018-08-17T05:39:28.947Z,1009.97
2018-08-17T05:40:29.008Z,1009.99
2018-08-17T05:41:29.529Z,1009.97
2018-08-17T05:42:29.487Z,1009.96
2018-08-17T05:43:29.444Z,1009.91
2018-08-17T05:44:29.558Z,1009.88
2018-08-17T05:45:31.437Z,1009.87
2018-08-17T05:46:29.486Z,1009.89
2018-08-17T05:47:29.009Z,1009.92
2018-08-17T05:48:29.747Z,1009.96
2018-08-17T05:49:29.715Z,1009.96
2018-08-17T05:50:30.031Z,1009.98
2018-08-17T05:51:29.489Z,1010.04
2018-08-17T05:52:29.515Z,1010.01
2018-08-17T05:53:29.468Z,1010.07
2018-08-17T05:54:29.987Z,1010.08
2018-08-17T05:55:30.031Z,1010.12
2018-08-17T05:56:29.573Z,1010.09
2018-08-17T05:58:29.558Z,1010.10
2018-08-17T05:59:29.666Z,1010.17
2018-08-17T06:00:31.447Z,1010.21
2018-08-17T06:01:29.454Z,1010.24
2018-08-17T06:02:29.397Z,1010.23
2018-08-17T06:03:29.534Z,1010.30
2018-08-17T06:04:29.765Z,1010.32
2018-08-17T06:05:30.195Z,1010.34
2018-08-17T06:06:29.657Z,1010.32
2018-08-17T06:07:29.691Z,1010.26
2018-08-17T06:08:29.532Z,1010.23
2018-08-17T06:09:29.492Z,1010.22
2018-08-17T06:10:29.436Z,1010.21
2018-08-17T06:11:29.592Z,1010.17
2018-08-17T06:12:29.442Z,1010.18
2018-08-17T06:13:31.413Z,1010.15
2018-08-17T06:14:29.693Z,1010.22
2018-08-17T06:15:31.668Z,1010.25
2018-08-17T06:16:29.547Z,1010.24
2018-08-17T06:17:30.032Z,1010.27
2018-08-17T06:18:29.709Z,1010.31
2018-08-17T06:19:29.447Z,1010.39
2018-08-17T06:20:29.594Z,1010.49
2018-08-17T06:21:29.468Z,1010.53
2018-08-17T06:22:30.153Z,1010.61
2018-08-17T06:23:30.216Z,1010.71
2018-08-17T06:24:30.557Z,1010.78
2018-08-17T06:25:31.007Z,1010.80
2018-08-17T06:26:30.166Z,1010.85
2018-08-17T06:27:28.931Z,1010.89
2018-08-17T06:28:29.473Z,1010.96
2018-08-17T06:29:31.479Z,1011.00
2018-08-17T06:30:29.499Z,1011.02
2018-08-17T06:31:29.653Z,1011.00
2018-08-17T06:32:31.236Z,1011.03
2018-08-17T06:33:30.595Z,1010.99
2018-08-17T06:34:30.137Z,1011.00
2018-08-17T06:35:29.426Z,1010.98
2018-08-17T06:36:29.505Z,1011.06
2018-08-17T06:37:29.484Z,1010.98
2018-08-17T06:38:29.486Z,1010.96
2018-08-17T06:39:29.480Z,1010.97
2018-08-17T06:40:29.461Z,1010.98
2018-08-17T06:41:29.490Z,1010.95
2018-08-17T06:42:29.521Z,1010.96
2018-08-17T06:44:29.537Z,1010.94
2018-08-17T06:45:30.999Z,1010.94
2018-08-17T06:46:31.489Z,1010.98
2018-08-17T06:47:30.155Z,1010.97
2018-08-17T06:48:29.498Z,1010.98
2018-08-17T06:49:29.504Z,1011.01
2018-08-17T06:50:29.490Z,1011.02
2018-08-17T06:51:29.511Z,1011.03
2018-08-17T06:52:30.141Z,1011.02
2018-08-17T06:53:28.915Z,1010.96
2018-08-17T06:54:30.217Z,1010.95
2018-08-17T06:55:31.698Z,1010.91
2018-08-17T06:56:30.296Z,1010.90
2018-08-17T06:57:28.968Z,1010.90
2018-08-17T06:58:29.545Z,1010.85
2018-08-17T06:59:29.503Z,1010.80
2018-08-17T07:00:29.728Z,1010.75
2018-08-17T07:01:32.269Z,1010.67
2018-08-17T07:02:28.926Z,1010.68
2018-08-17T07:03:29.460Z,1010.63
2018-08-17T07:04:29.454Z,1010.56
2018-08-17T07:05:29.471Z,1010.47
2018-08-17T07:06:29.470Z,1010.47
2018-08-17T07:07:29.473Z,1010.47
2018-08-17T07:08:29.461Z,1010.52
2018-08-17T07:09:29.559Z,1010.64
2018-08-17T07:10:29.474Z,1010.67
2018-08-17T07:11:29.508Z,1010.76
2018-08-17T07:12:29.998Z,1010.79
2018-08-17T07:13:30.327Z,1010.82
2018-08-17T07:14:29.866Z,1010.84
2018-08-17T07:15:29.722Z,1010.90
2018-08-17T07:16:30.046Z,1011.00
2018-08-17T07:17:28.902Z,1011.01
2018-08-17T07:18:29.306Z,1011.10
2018-08-17T07:19:29.249Z,1011.07
2018-08-17T07:20:29.219Z,1011.13
2018-08-17T07:21:29.467Z,1011.17
2018-08-17T07:22:29.209Z,1011.17
2018-08-17T07:23:31.265Z,1011.23
2018-08-17T07:24:29.305Z,1011.19
2018-08-17T07:25:29.308Z,1011.21
2018-08-17T07:26:29.499Z,1011.19
2018-08-17T07:27:28.809Z,1011.23
2018-08-17T07:28:30.921Z,1011.27
2018-08-17T07:29:29.613Z,1011.34
2018-08-17T07:30:29.235Z,1011.35
2018-08-17T07:31:28.774Z,1011.42
2018-08-17T07:32:29.020Z,1011.43
2018-08-17T07:33:29.101Z,1011.46
2018-08-17T07:34:31.081Z,1011.48
2018-08-17T07:35:31.268Z,1011.49
2018-08-17T07:36:29.077Z,1011.48
2018-08-17T07:37:29.056Z,1011.48
2018-08-17T07:38:29.133Z,1011.44
2018-08-17T07:39:28.777Z,1011.45
2018-08-17T07:40:29.559Z,1011.41
2018-08-17T07:41:31.165Z,1011.39
2018-08-17T07:42:29.580Z,1011.36
2018-08-17T07:43:29.840Z,1011.29
2018-08-17T07:44:28.809Z,1011.32
2018-08-17T07:45:31.214Z,1011.30
2018-08-17T07:46:29.105Z,1011.32
2018-08-17T07:47:30.056Z,1011.25
2018-08-17T07:48:29.458Z,1011.25
2018-08-17T07:49:31.383Z,1011.29
2018-08-17T07:50:31.043Z,1011.29
2018-08-17T07:51:30.307Z,1011.24
2018-08-17T07:52:30.074Z,1011.19
2018-08-17T07:53:29.282Z,1011.16
2018-08-17T07:54:30.757Z,1011.12
2018-08-17T07:55:29.585Z,1011.03
2018-08-17T07:56:31.537Z,1010.98
2018-08-17T07:57:29.229Z,1010.97
2018-08-17T07:58:29.537Z,1010.96
2018-08-17T07:59:29.743Z,1010.99
2018-08-17T08:00:29.234Z,1011.01
2018-08-17T08:01:29.747Z,1011.03
2018-08-17T08:02:28.785Z,1011.07
2018-08-17T08:03:29.848Z,1011.11
2018-08-17T08:04:29.173Z,1011.09
2018-08-17T08:05:29.015Z,1011.07
2018-08-17T08:06:29.002Z,1011.02
2018-08-17T08:07:31.151Z,1010.97
2018-08-17T08:08:29.255Z,1010.97
2018-08-17T08:09:29.750Z,1010.98
2018-08-17T08:10:30.040Z,1010.99
2018-08-17T08:11:50.645Z,1010.98
2018-08-17T08:12:29.140Z,1010.94
2018-08-17T08:13:29.791Z,1010.94
2018-08-17T08:14:30.144Z,1010.96
2018-08-17T08:15:29.278Z,1010.98
2018-08-17T08:16:29.338Z,1011.02
2018-08-17T08:17:29.396Z,1011.05
2018-08-17T08:18:31.700Z,1011.04
2018-08-17T08:19:29.400Z,1011.07
2018-08-17T08:20:29.810Z,1011.02
2018-08-17T08:21:50.572Z,1011.01
2018-08-17T08:22:43.936Z,1011.00
2018-08-17T08:23:30.871Z,1011.04
2018-08-17T08:24:29.147Z,1011.05
2018-08-17T08:25:29.190Z,1011.08
2018-08-17T08:26:30.543Z,1011.08
2018-08-17T08:27:29.382Z,1011.11
2018-08-17T08:28:29.320Z,1011.18
2018-08-17T08:29:31.196Z,1011.19
2018-08-17T08:30:29.431Z,1011.25
2018-08-17T08:31:29.575Z,1011.30
2018-08-17T08:32:31.034Z,1011.33
2018-08-17T08:33:29.053Z,1011.38
2018-08-17T08:34:30.834Z,1011.41
2018-08-17T08:35:29.694Z,1011.45
2018-08-17T08:36:29.246Z,1011.44
2018-08-17T08:37:30.224Z,1011.42
2018-08-17T08:38:29.034Z,1011.42
2018-08-17T08:39:30.052Z,1011.40
2018-08-17T08:40:29.942Z,1011.36
2018-08-17T08:41:31.767Z,1011.35
2018-08-17T08:42:50.774Z,1011.32
2018-08-17T08:43:29.201Z,1011.33
2018-08-17T08:44:29.066Z,1011.38
2018-08-17T08:45:28.797Z,1011.37
2018-08-17T08:46:34.976Z,1011.38
2018-08-17T08:47:29.784Z,1011.35
2018-08-17T08:48:29.451Z,1011.38
2018-08-17T08:49:29.114Z,1011.39
2018-08-17T08:50:29.580Z,1011.44
2018-08-17T08:51:29.059Z,1011.45
2018-08-17T08:52:30.683Z,1011.48
2018-08-17T08:53:29.240Z,1011.50
2018-08-17T08:54:29.640Z,1011.48
2018-08-17T08:55:29.286Z,1011.49
2018-08-17T08:56:29.799Z,1011.49
2018-08-17T08:57:28.791Z,1011.46
2018-08-17T08:58:32.179Z,1011.43
2018-08-17T08:59:28.796Z,1011.47
2018-08-17T09:00:29.076Z,1011.44
2018-08-17T09:01:30.426Z,1011.48
2018-08-17T09:02:30.806Z,1011.50
2018-08-17T09:03:29.097Z,1011.54
2018-08-17T09:04:31.536Z,1011.55
2018-08-17T09:05:29.656Z,1011.61
2018-08-17T09:06:31.725Z,1011.58
2018-08-17T09:07:29.119Z,1011.60
2018-08-17T09:08:29.770Z,1011.54
2018-08-17T09:09:29.759Z,1011.51
2018-08-17T09:10:28.829Z,1011.53
2018-08-17T09:11:29.782Z,1011.54
2018-08-17T09:12:29.241Z,1011.59
2018-08-17T09:13:29.154Z,1011.61
2018-08-17T09:14:30.664Z,1011.62
2018-08-17T09:15:29.567Z,1011.64
2018-08-17T09:16:29.794Z,1011.69
2018-08-17T09:17:29.774Z,1011.67
2018-08-17T09:18:29.153Z,1011.62
2018-08-17T09:19:29.214Z,1011.61
2018-08-17T09:20:27.868Z,1011.64
2018-08-17T09:21:29.252Z,1011.67
2018-08-17T09:22:30.095Z,1011.65
2018-08-17T09:23:29.042Z,1011.67
2018-08-17T09:24:29.801Z,1011.68
2018-08-17T09:25:30.729Z,1011.69
2018-08-17T09:26:29.249Z,1011.73
2018-08-17T09:27:30.833Z,1011.74
2018-08-17T09:28:29.374Z,1011.73
2018-08-17T09:29:29.304Z,1011.75
2018-08-17T09:30:29.171Z,1011.72
2018-08-17T09:31:29.245Z,1011.77
2018-08-17T09:32:31.227Z,1011.77
2018-08-17T09:33:29.093Z,1011.79
2018-08-17T09:34:29.076Z,1011.78
2018-08-17T09:35:29.728Z,1011.76
2018-08-17T09:36:29.108Z,1011.80
2018-08-17T09:37:29.172Z,1011.82
2018-08-17T09:38:29.143Z,1011.83
2018-08-17T09:39:29.576Z,1011.80
2018-08-17T09:40:29.499Z,1011.77
2018-08-17T09:41:29.671Z,1011.76
2018-08-17T09:42:29.181Z,1011.73
2018-08-17T09:43:29.196Z,1011.76
2018-08-17T09:44:29.737Z,1011.80
2018-08-17T09:45:29.598Z,1011.82
2018-08-17T09:46:29.802Z,1011.83
2018-08-17T09:47:29.784Z,1011.81
2018-08-17T09:48:28.816Z,1011.83
2018-08-17T09:49:29.584Z,1011.78
2018-08-17T09:50:29.787Z,1011.86
2018-08-17T09:51:31.237Z,1011.84
2018-08-17T09:52:29.841Z,1011.86
2018-08-17T09:53:31.243Z,1011.85
2018-08-17T09:54:29.578Z,1011.86
2018-08-17T09:55:29.308Z,1011.86
2018-08-17T09:56:29.153Z,1011.83
2018-08-17T09:57:29.650Z,1011.83
2018-08-17T09:58:30.788Z,1011.84
2018-08-17T09:59:29.393Z,1011.84
2018-08-17T10:00:29.820Z,1011.87
2018-08-17T10:01:28.821Z,1011.87
2018-08-17T10:02:31.325Z,1011.87
2018-08-17T10:03:29.402Z,1011.90
2018-08-17T10:04:29.719Z,1011.88
2018-08-17T10:05:30.327Z,1011.89
2018-08-17T10:06:29.590Z,1011.96
2018-08-17T10:07:29.033Z,1011.97
2018-08-17T10:08:29.322Z,1011.98
2018-08-17T10:09:29.579Z,1011.96
2018-08-17T10:10:31.588Z,1011.97
2018-08-17T10:11:29.386Z,1011.95
2018-08-17T10:12:28.826Z,1011.89
2018-08-17T10:13:30.352Z,1011.96
2018-08-17T10:14:29.498Z,1011.95
2018-08-17T10:15:29.607Z,1011.95
2018-08-17T10:16:30.147Z,1011.98
2018-08-17T10:17:31.170Z,1012.01
2018-08-17T10:18:31.241Z,1011.97
2018-08-17T10:19:29.283Z,1012.00
2018-08-17T10:20:29.263Z,1011.97
2018-08-17T10:21:54.504Z,1012.02
2018-08-17T10:22:29.234Z,1011.98
2018-08-17T10:23:29.495Z,1012.03
2018-08-17T10:24:30.819Z,1012.05
2018-08-17T10:25:29.812Z,1012.07
2018-08-17T10:26:29.290Z,1012.05
2018-08-17T10:27:29.821Z,1012.05
2018-08-17T10:28:30.338Z,1012.08
2018-08-17T10:29:29.208Z,1012.06
2018-08-17T10:30:29.348Z,1012.07
2018-08-17T10:31:29.339Z,1012.10
2018-08-17T10:32:29.322Z,1012.07
2018-08-17T10:33:30.766Z,1012.04
2018-08-17T10:34:29.173Z,1012.09
2018-08-17T10:35:29.255Z,1012.07
2018-08-17T10:36:29.259Z,1012.13
2018-08-17T10:37:27.764Z,1012.06
2018-08-17T10:38:29.353Z,1012.08
2018-08-17T10:39:29.123Z,1012.07
2018-08-17T10:40:29.125Z,1012.10
2018-08-17T10:41:29.164Z,1012.07
2018-08-17T10:42:29.133Z,1012.08
2018-08-17T10:43:31.577Z,1012.09
2018-08-17T10:44:29.174Z,1012.08
2018-08-17T10:45:29.804Z,1012.07
2018-08-17T10:46:29.299Z,1012.06
2018-08-17T10:47:30.579Z,1012.10
2018-08-17T10:48:29.830Z,1012.09
2018-08-17T10:49:29.564Z,1012.11
2018-08-17T10:50:29.811Z,1012.10
2018-08-17T10:51:29.619Z,1012.12
2018-08-17T10:52:29.759Z,1012.03
2018-08-17T10:53:29.813Z,1012.06
2018-08-17T10:54:29.252Z,1012.10
2018-08-17T10:55:29.329Z,1012.15
2018-08-17T10:56:28.909Z,1012.06
2018-08-17T10:57:29.421Z,1012.14
2018-08-17T10:58:29.672Z,1012.06
2018-08-17T10:59:29.312Z,1012.12
2018-08-17T11:00:31.805Z,1012.09
2018-08-17T11:01:30.344Z,1012.07
2018-08-17T11:02:29.391Z,1012.08
2018-08-17T11:03:29.455Z,1012.05
2018-08-17T11:04:29.528Z,1012.07
2018-08-17T11:05:29.763Z,1012.05
2018-08-17T11:06:28.877Z,1012.04
2018-08-17T11:07:29.161Z,1012.00
2018-08-17T11:08:29.657Z,1012.05
2018-08-17T11:09:30.462Z,1012.06
2018-08-17T11:10:29.254Z,1012.06
2018-08-17T11:11:27.818Z,1012.13
2018-08-17T11:12:29.888Z,1012.12
2018-08-17T11:13:29.600Z,1012.12
2018-08-17T11:14:31.371Z,1012.11
2018-08-17T11:15:29.612Z,1012.13
2018-08-17T11:16:29.308Z,1012.14
2018-08-17T11:17:29.511Z,1012.15
2018-08-17T11:18:29.850Z,1012.12
2018-08-17T11:19:29.176Z,1012.11
2018-08-17T11:20:29.622Z,1012.09
2018-08-17T11:21:29.645Z,1012.14
2018-08-17T11:22:30.189Z,1012.10
2018-08-17T11:23:30.125Z,1012.12
2018-08-17T11:24:29.188Z,1012.09
2018-08-17T11:25:29.758Z,1012.10
2018-08-17T11:26:29.814Z,1012.11
2018-08-17T11:27:29.483Z,1012.14
2018-08-17T11:28:29.723Z,1012.11
2018-08-17T11:29:31.179Z,1012.10
2018-08-17T11:30:29.364Z,1012.14
2018-08-17T11:31:27.871Z,1012.13
2018-08-17T11:32:29.305Z,1012.17
2018-08-17T11:33:28.897Z,1012.12
2018-08-17T11:34:29.773Z,1012.13
2018-08-17T11:35:30.245Z,1012.12
2018-08-17T11:36:29.149Z,1012.19
2018-08-17T11:37:28.884Z,1012.23
2018-08-17T11:38:29.376Z,1012.21
2018-08-17T11:39:29.320Z,1012.18
2018-08-17T11:40:29.553Z,1012.21
2018-08-17T11:41:29.348Z,1012.19
2018-08-17T11:42:29.175Z,1012.18
2018-08-17T11:43:29.823Z,1012.20
2018-08-17T11:46:02.638Z,1012.25
2018-08-17T11:47:02.792Z,1012.24
2018-08-17T11:48:02.752Z,1012.32
2018-08-17T11:49:02.771Z,1012.36
2018-08-17T11:50:02.795Z,1012.37
2018-08-17T11:51:02.788Z,1012.43
2018-08-17T11:52:02.737Z,1012.44
2018-08-17T11:53:02.774Z,1012.44
2018-08-17T11:54:02.942Z,1012.39
2018-08-17T11:55:02.709Z,1012.39
2018-08-17T11:56:02.993Z,1012.37
2018-08-17T11:57:03.287Z,1012.33
2018-08-17T11:58:04.059Z,1012.32
2018-08-17T11:59:02.753Z,1012.33
2018-08-17T12:00:02.797Z,1012.29
2018-08-17T12:01:03.013Z,1012.31
2018-08-17T12:02:02.877Z,1012.37
2018-08-17T12:03:04.112Z,1012.37
2018-08-17T12:04:02.323Z,1012.37
2018-08-17T12:05:02.752Z,1012.34
2018-08-17T12:06:02.771Z,1012.38
2018-08-17T12:07:02.779Z,1012.33
2018-08-17T12:08:02.997Z,1012.33
2018-08-17T12:09:02.996Z,1012.33
2018-08-17T12:10:02.890Z,1012.37
2018-08-17T12:11:03.418Z,1012.42
2018-08-17T12:12:02.726Z,1012.39